Time;durP1;ratioP1;P1;durP2;ratioP2;P2;SDS_P1;SDS_P2;PMS_P1;PMS_P2;Temp;Humidity;BMP_temperature;BMP_pressure;BME280_temperature;BME280_humidity;BME280_pressure;Samples;Min_cycle;Max_cycle;Signal;HPM_P1;HPM_P2
2022/04/17 00:02:03;;;;;;;4.78;2.15;;;;;;;-144.47;100.00;61586.06;6181349;23;20304;-75
2022/04/17 00:04:29;;;;;;;3.42;2.38;;;;;;;-144.47;100.00;61586.06;6181515;23;20385;-75
2022/04/17 00:06:56;;;;;;;5.82;2.28;;;;;;;-144.47;100.00;61586.06;6181205;23;20013;-75
2022/04/17 00:09:21;;;;;;;2.17;1.80;;;;;;;-144.47;100.00;61586.06;6180660;23;20343;-75
2022/04/17 00:11:47;;;;;;;3.20;2.40;;;;;;;-144.47;100.00;61586.06;6181795;23;20013;-75
2022/04/17 00:14:12;;;;;;;5.50;2.13;;;;;;;-144.47;100.00;61586.06;6180478;23;20015;-73
2022/04/17 00:16:40;;;;;;;1.90;1.80;;;;;;;-144.47;100.00;61586.06;6180513;23;20320;-73
2022/04/17 00:19:06;;;;;;;2.83;2.13;;;;;;;-144.47;100.00;61586.06;6180056;23;20013;-74
2022/04/17 00:21:33;;;;;;;2.38;2.17;;;;;;;-144.47;100.00;61586.06;6180657;23;20009;-76
2022/04/17 00:23:58;;;;;;;3.15;2.55;;;;;;;-144.47;100.00;61586.06;6181285;23;20013;-76
2022/04/17 00:26:24;;;;;;;3.08;2.10;;;;;;;-144.47;100.00;61586.06;6182571;23;20039;-76
2022/04/17 00:28:49;;;;;;;2.03;1.92;;;;;;;-144.47;100.00;61586.06;6182825;23;20013;-74
2022/04/17 00:31:15;;;;;;;6.28;2.05;;;;;;;-144.47;100.00;61586.06;6182103;23;20052;-75
2022/04/17 00:33:40;;;;;;;3.33;2.00;;;;;;;-144.47;100.00;61586.06;6182788;23;20055;-75
2022/04/17 00:36:05;;;;;;;2.72;2.30;;;;;;;-144.47;100.00;61586.06;6182401;23;20323;-74
2022/04/17 00:38:31;;;;;;;2.55;2.08;;;;;;;-144.47;100.00;61586.06;6182109;23;20076;-75
2022/04/17 00:40:56;;;;;;;1.70;1.60;;;;;;;-144.47;100.00;61586.06;6182573;23;20111;-75
2022/04/17 00:43:25;;;;;;;1.90;1.80;;;;;;;-144.47;100.00;61586.06;6182267;23;20434;-75
2022/04/17 00:45:52;;;;;;;2.97;1.92;;;;;;;-144.47;100.00;61586.06;6182691;23;20005;-75
2022/04/17 00:48:18;;;;;;;2.60;2.13;;;;;;;-144.47;100.00;61586.06;6182253;23;20418;-75
2022/04/17 00:50:45;;;;;;;3.75;2.30;;;;;;;-144.47;100.00;61586.06;6182511;23;20009;-75
2022/04/17 00:53:11;;;;;;;3.63;2.17;;;;;;;-144.47;100.00;61586.06;6181724;23;20051;-75
2022/04/17 00:55:37;;;;;;;3.72;2.10;;;;;;;-144.47;100.00;61586.06;6182134;23;20311;-75
2022/04/17 00:58:03;;;;;;;3.42;2.03;;;;;;;-144.47;100.00;61586.06;6180575;23;20419;-74
2022/04/17 01:00:28;;;;;;;2.25;2.05;;;;;;;-144.47;100.00;61586.06;6180285;23;20339;-74
2022/04/17 01:02:54;;;;;;;3.58;2.60;;;;;;;-144.47;100.00;61586.06;6180284;23;20376;-75
2022/04/17 01:05:20;;;;;;;3.47;2.15;;;;;;;-144.47;100.00;61586.06;6182034;23;20033;-74
2022/04/17 01:07:47;;;;;;;2.97;2.67;;;;;;;-144.47;100.00;61586.06;6183483;23;20168;-75
2022/04/17 01:10:13;;;;;;;2.30;2.10;;;;;;;-144.47;100.00;61586.06;6183071;23;20437;-76
2022/04/17 01:12:38;;;;;;;2.30;2.10;;;;;;;-144.47;100.00;61586.06;6182956;23;20059;-75
2022/04/17 01:15:04;;;;;;;5.88;2.33;;;;;;;-144.47;100.00;61586.06;6183475;23;20331;-75
2022/04/17 01:17:30;;;;;;;2.58;2.38;;;;;;;-144.47;100.00;61586.06;6183493;23;20420;-75
2022/04/17 01:19:55;;;;;;;2.55;2.33;;;;;;;-144.47;100.00;61586.06;6183214;23;20063;-75
2022/04/17 01:22:21;;;;;;;2.60;2.40;;;;;;;-144.47;100.00;61586.06;6182485;23;20125;-75
2022/04/17 01:27:30;;;;;;;4.05;2.40;;;;;;;-144.47;100.00;61586.06;6181204;23;20136;-77
2022/04/17 01:29:56;;;;;;;3.13;2.40;;;;;;;-144.47;100.00;61586.06;6182130;23;20072;-76
2022/04/17 01:32:22;;;;;;;3.03;2.33;;;;;;;-144.47;100.00;61586.06;6183109;23;20017;-75
2022/04/17 01:34:48;;;;;;;4.93;2.88;;;;;;;-144.47;100.00;61586.06;6182247;23;20005;-74
2022/04/17 01:37:14;;;;;;;3.22;2.50;;;;;;;-144.47;100.00;61586.06;6181605;23;20049;-74
2022/04/17 01:39:40;;;;;;;4.32;2.95;;;;;;;-144.47;100.00;61586.06;6182676;23;20473;-74
2022/04/17 01:42:05;;;;;;;3.53;2.90;;;;;;;-144.47;100.00;61586.06;6182024;23;20005;-76
2022/04/17 01:44:31;;;;;;;4.28;2.55;;;;;;;-144.47;100.00;61586.06;6182255;23;20051;-74
2022/04/17 01:46:58;;;;;;;4.45;3.33;;;;;;;-144.47;100.00;61586.06;6182338;23;20009;-75
2022/04/17 01:49:23;;;;;;;3.85;3.05;;;;;;;-144.47;100.00;61586.06;6181688;23;20388;-76
2022/04/17 01:51:51;;;;;;;3.13;2.83;;;;;;;-144.47;100.00;61586.06;6155707;23;20020;-76
2022/04/17 01:54:18;;;;;;;5.93;3.20;;;;;;;-144.47;100.00;61586.06;6181983;23;20017;-76
2022/04/17 01:56:47;;;;;;;3.08;2.80;;;;;;;-144.47;100.00;61586.06;6182236;23;20005;-76
2022/04/17 01:59:14;;;;;;;5.28;3.10;;;;;;;-144.47;100.00;61586.06;6181387;23;20438;-76
2022/04/17 02:01:40;;;;;;;3.65;2.72;;;;;;;-144.47;100.00;61586.06;6181981;23;20005;-74
2022/04/17 02:04:07;;;;;;;3.85;3.00;;;;;;;-144.47;100.00;61586.06;6181648;23;20020;-75
2022/04/17 02:06:33;;;;;;;4.45;3.08;;;;;;;-144.47;100.00;61586.06;6180996;23;20024;-74
2022/04/17 02:09:00;;;;;;;2.78;2.45;;;;;;;-144.47;100.00;61586.06;6181057;23;20005;-74
2022/04/17 02:11:26;;;;;;;4.15;3.00;;;;;;;-144.47;100.00;61586.06;6180615;23;20024;-74
2022/04/17 02:13:53;;;;;;;4.20;3.13;;;;;;;-144.47;100.00;61586.06;6180896;23;20005;-75
2022/04/17 02:16:18;;;;;;;5.68;3.30;;;;;;;-144.47;100.00;61586.06;6180679;23;20051;-73
2022/04/17 02:18:45;;;;;;;5.25;2.80;;;;;;;-144.47;100.00;61586.06;6181425;23;20001;-74
2022/04/17 02:21:12;;;;;;;3.40;3.10;;;;;;;-144.47;100.00;61586.06;6180609;23;20091;-75
2022/04/17 02:23:39;;;;;;;3.15;2.75;;;;;;;-144.47;100.00;61586.06;6180658;23;20338;-76
2022/04/17 02:26:05;;;;;;;4.85;2.95;;;;;;;-144.47;100.00;61586.06;6180884;23;20009;-74
2022/04/17 02:28:34;;;;;;;4.40;3.00;;;;;;;-144.47;100.00;61586.06;6180453;23;20044;-76
2022/04/17 02:31:01;;;;;;;4.65;3.00;;;;;;;-144.47;100.00;61586.06;6180707;23;20005;-75
2022/04/17 02:33:27;;;;;;;3.55;2.67;;;;;;;-144.47;100.00;61586.06;6180281;23;20013;-74
2022/04/17 02:35:53;;;;;;;3.00;2.50;;;;;;;-144.47;100.00;61586.06;6180867;23;20064;-74
2022/04/17 02:38:18;;;;;;;2.78;2.58;;;;;;;-144.47;100.00;61586.06;6180223;23;20013;-75
2022/04/17 02:40:44;;;;;;;4.68;3.13;;;;;;;-144.47;100.00;61586.06;6181122;23;20063;-74
2022/04/17 02:43:09;;;;;;;3.65;3.33;;;;;;;-144.47;100.00;61586.06;6180823;23;20009;-74
2022/04/17 02:45:35;;;;;;;4.53;2.58;;;;;;;-144.47;100.00;61586.06;6180941;23;20031;-74
2022/04/17 02:48:00;;;;;;;4.60;2.75;;;;;;;-144.47;100.00;61586.06;6188401;23;20093;-74
2022/04/17 02:50:25;;;;;;;3.83;2.78;;;;;;;-144.47;100.00;61586.06;6181144;23;20097;-75
2022/04/17 02:52:57;;;;;;;4.60;3.40;;;;;;;-144.47;100.00;61586.06;6180350;23;20100;-76
2022/04/17 02:55:23;;;;;;;5.95;3.13;;;;;;;-144.47;100.00;61586.06;6181288;23;20013;-75
2022/04/17 02:57:48;;;;;;;4.60;2.78;;;;;;;-144.47;100.00;61586.06;6181319;23;20007;-73
2022/04/17 03:00:15;;;;;;;3.20;2.95;;;;;;;-144.47;100.00;61586.06;6180304;23;20436;-74
2022/04/17 03:05:36;;;;;;;5.07;3.10;;;;;;;-144.47;100.00;61586.06;6180435;23;20017;-74
2022/04/17 03:08:12;;;;;;;3.67;2.97;;;;;;;-144.47;100.00;61586.06;6180508;23;20012;-75
2022/04/17 03:10:40;;;;;;;3.42;2.90;;;;;;;-144.47;100.00;61586.06;6181021;23;20084;-75
2022/04/17 03:13:06;;;;;;;5.60;3.60;;;;;;;-144.47;100.00;61586.06;6154179;23;20386;-74
2022/04/17 03:15:33;;;;;;;3.65;3.17;;;;;;;-144.47;100.00;61586.06;6180636;23;20005;-75
2022/04/17 03:17:59;;;;;;;4.25;3.42;;;;;;;-144.47;100.00;61586.06;6180584;23;20011;-75
2022/04/17 03:20:26;;;;;;;4.07;3.40;;;;;;;-144.47;100.00;61586.06;6180097;23;20364;-75
2022/04/17 03:22:51;;;;;;;4.18;3.67;;;;;;;-144.47;100.00;61586.06;6180580;23;20021;-75
2022/04/17 03:25:17;;;;;;;5.85;3.15;;;;;;;-144.47;100.00;61586.06;6182021;23;20013;-75
2022/04/17 03:27:46;;;;;;;4.22;3.60;;;;;;;-144.47;100.00;61586.06;6186219;23;20069;-74
2022/04/17 03:30:13;;;;;;;4.13;3.50;;;;;;;-144.47;100.00;61586.06;6185392;23;20108;-74
2022/04/17 03:32:38;;;;;;;4.55;4.13;;;;;;;-144.47;100.00;61586.06;6180571;23;20024;-73
2022/04/17 03:35:04;;;;;;;5.18;3.75;;;;;;;-144.47;100.00;61586.06;6181212;23;20009;-74
2022/04/17 03:37:30;;;;;;;4.60;4.15;;;;;;;-144.47;100.00;61586.06;6180838;23;20085;-74
2022/04/17 03:39:55;;;;;;;4.50;4.10;;;;;;;-144.47;100.00;61586.06;6181449;23;20430;-74
2022/04/17 03:42:21;;;;;;;3.90;3.50;;;;;;;-144.47;100.00;61586.06;6181578;23;20009;-74
2022/04/17 03:44:47;;;;;;;6.68;3.88;;;;;;;-144.47;100.00;61586.06;6181613;23;20260;-74
2022/04/17 03:47:13;;;;;;;5.03;4.00;;;;;;;-144.47;100.00;61586.06;6180690;23;20103;-75
2022/04/17 03:49:38;;;;;;;6.25;3.78;;;;;;;-144.47;100.00;61586.06;6181406;23;20088;-74
2022/04/17 03:52:04;;;;;;;4.10;3.75;;;;;;;-144.47;100.00;61586.06;6180722;23;20099;-75
2022/04/17 03:54:30;;;;;;;4.13;3.83;;;;;;;-144.47;100.00;61586.06;6181093;23;20013;-74
2022/04/17 03:56:56;;;;;;;5.07;4.55;;;;;;;-144.47;100.00;61586.06;6181532;23;20288;-75
2022/04/17 03:59:21;;;;;;;5.05;3.95;;;;;;;-144.47;100.00;61586.06;6181115;23;20013;-75
2022/04/17 04:01:46;;;;;;;3.95;3.65;;;;;;;-144.47;100.00;61586.06;6180837;23;20075;-75
2022/04/17 04:04:14;;;;;;;3.88;3.45;;;;;;;-144.47;100.00;61586.06;6180406;23;20001;-76
2022/04/17 04:06:40;;;;;;;6.15;4.00;;;;;;;-144.47;100.00;61586.06;6180618;23;20013;-75
2022/04/17 04:09:05;;;;;;;3.95;3.58;;;;;;;-144.47;100.00;61586.06;6180160;23;20075;-75
2022/04/17 04:11:31;;;;;;;3.90;3.55;;;;;;;-144.47;100.00;61586.06;6154621;23;20009;-75
2022/04/17 04:13:56;;;;;;;4.90;3.65;;;;;;;-144.47;100.00;61586.06;6181148;23;20438;-75
2022/04/17 04:16:22;;;;;;;3.88;3.55;;;;;;;-144.47;100.00;61586.06;6180248;23;20374;-74
2022/04/17 04:18:47;;;;;;;7.53;4.13;;;;;;;-144.47;100.00;61586.06;6180764;23;20374;-74
2022/04/17 04:21:13;;;;;;;4.03;3.25;;;;;;;-144.47;100.00;61586.06;6180701;23;20005;-76
2022/04/17 04:23:41;;;;;;;3.60;3.30;;;;;;;-144.47;100.00;61586.06;6180860;23;20028;-75
2022/04/17 04:26:07;;;;;;;3.05;2.75;;;;;;;-144.47;100.00;61586.06;6180979;23;20080;-76
2022/04/17 04:28:33;;;;;;;2.97;2.78;;;;;;;-144.47;100.00;61586.06;6181045;23;20352;-75
2022/04/17 04:31:05;;;;;;;3.50;3.20;;;;;;;-144.47;100.00;61586.06;6181059;23;20088;-76
2022/04/17 04:33:31;;;;;;;4.78;3.58;;;;;;;-144.47;100.00;61586.06;6181002;23;20379;-73
2022/04/17 04:36:01;;;;;;;5.55;3.22;;;;;;;-144.47;100.00;61586.06;6180602;23;20013;-74
2022/04/17 04:38:27;;;;;;;3.15;2.85;;;;;;;-144.47;100.00;61586.06;6180013;23;20024;-74
2022/04/17 04:40:53;;;;;;;4.50;3.13;;;;;;;-144.47;100.00;61586.06;6181287;23;20006;-75
2022/04/17 04:43:18;;;;;;;3.90;3.47;;;;;;;-144.47;100.00;61586.06;6184667;23;20009;-75
2022/04/17 04:51:13;;;;;;;4.82;3.30;;;;;;;-144.47;100.00;61586.06;6183672;23;20127;-75
2022/04/17 04:53:39;;;;;;;4.85;3.10;;;;;;;-144.47;100.00;61586.06;6184167;23;20009;-75
2022/04/17 04:56:05;;;;;;;3.92;3.08;;;;;;;-144.47;100.00;61586.06;6181921;23;20087;-75
2022/04/17 04:58:31;;;;;;;3.78;3.47;;;;;;;-144.47;100.00;61586.06;6182725;23;20014;-75
2022/04/17 05:00:56;;;;;;;3.08;2.70;;;;;;;-144.47;100.00;61586.06;6181198;23;20016;-75
2022/04/17 05:03:21;;;;;;;3.22;2.97;;;;;;;-144.47;100.00;61586.06;6153955;23;20017;-75
2022/04/17 05:05:47;;;;;;;3.67;3.38;;;;;;;-144.47;100.00;61586.06;6180855;23;20009;-74
2022/04/17 05:08:12;;;;;;;3.20;2.90;;;;;;;-144.47;100.00;61586.06;6180167;23;20036;-75
2022/04/17 05:10:38;;;;;;;2.58;2.38;;;;;;;-144.47;100.00;61586.06;6181336;23;20033;-75
2022/04/17 05:13:04;;;;;;;2.80;2.60;;;;;;;-144.47;100.00;61586.06;6182497;23;20017;-76
2022/04/17 05:15:30;;;;;;;2.80;2.60;;;;;;;-144.47;100.00;61586.06;6182583;23;20013;-76
2022/04/17 05:17:56;;;;;;;2.92;2.72;;;;;;;-144.47;100.00;61586.06;6156334;23;20146;-73
2022/04/17 05:20:22;;;;;;;2.75;2.42;;;;;;;-144.47;100.00;61586.06;6182491;23;20316;-76
2022/04/17 05:22:56;;;;;;;2.95;2.75;;;;;;;-144.47;100.00;61586.06;6182530;23;20368;-73
2022/04/17 05:25:21;;;;;;;2.78;2.42;;;;;;;-144.47;100.00;61586.06;6183246;23;20388;-75
2022/04/17 05:27:47;;;;;;;3.03;2.55;;;;;;;-144.47;100.00;61586.06;6183254;23;20013;-75
2022/04/17 05:30:12;;;;;;;3.03;2.17;;;;;;;-144.47;100.00;61586.06;6182182;23;20307;-75
2022/04/17 05:32:38;;;;;;;3.05;2.85;;;;;;;-144.47;100.00;61586.06;6182646;23;20017;-75
2022/04/17 05:35:04;;;;;;;5.32;2.33;;;;;;;-144.47;100.00;61586.06;6183052;23;20017;-75
2022/04/17 05:37:29;;;;;;;4.38;3.05;;;;;;;-144.47;100.00;61586.06;6182104;23;20422;-74
2022/04/17 05:39:55;;;;;;;4.75;2.50;;;;;;;-144.47;100.00;61586.06;6182431;23;20063;-75
2022/04/17 05:42:20;;;;;;;3.63;2.60;;;;;;;-144.47;100.00;61586.06;6182160;23;20092;-75
2022/04/17 05:44:47;;;;;;;2.17;2.05;;;;;;;-144.47;100.00;61586.06;6182387;23;20017;-75
2022/04/17 05:47:13;;;;;;;2.33;2.13;;;;;;;-144.47;100.00;61586.06;6182020;23;20434;-76
2022/04/17 05:49:39;;;;;;;4.22;2.00;;;;;;;-144.47;100.00;61586.06;6182215;23;20016;-76
2022/04/17 05:52:05;;;;;;;2.08;1.98;;;;;;;-144.47;100.00;61586.06;6181579;23;20017;-75
2022/04/17 05:54:30;;;;;;;3.08;1.95;;;;;;;-144.47;100.00;61586.06;6182046;23;20013;-74
2022/04/17 05:56:56;;;;;;;2.58;2.30;;;;;;;-144.47;100.00;61586.06;6182604;23;20356;-74
2022/04/17 05:59:22;;;;;;;2.25;2.05;;;;;;;-144.47;100.00;61586.06;6181977;23;20084;-73
2022/04/17 06:01:47;;;;;;;2.00;1.90;;;;;;;-144.47;100.00;61586.06;6182662;23;20119;-75
2022/04/17 06:04:13;;;;;;;4.25;2.20;;;;;;;-144.47;100.00;61586.06;6182213;23;20422;-75
2022/04/17 06:06:38;;;;;;;3.65;2.10;;;;;;;-144.47;100.00;61586.06;6182674;23;20489;-76
2022/04/17 06:09:05;;;;;;;4.15;2.00;;;;;;;-144.47;100.00;61586.06;6181917;23;20085;-75
2022/04/17 06:11:31;;;;;;;2.65;2.42;;;;;;;-144.47;100.00;61586.06;6155478;23;20012;-74
2022/04/17 06:13:56;;;;;;;2.22;2.00;;;;;;;-144.47;100.00;61586.06;6182508;23;20012;-74
2022/04/17 06:16:22;;;;;;;3.65;2.13;;;;;;;-144.47;100.00;61586.06;6182166;23;20017;-74
2022/04/17 06:18:47;;;;;;;3.72;1.80;;;;;;;-144.47;100.00;61586.06;6182520;23;20059;-74
2022/04/17 06:21:13;;;;;;;2.30;2.10;;;;;;;-144.47;100.00;61586.06;6181680;23;20019;-75
2022/04/17 06:23:39;;;;;;;2.13;1.83;;;;;;;-144.47;100.00;61586.06;6181825;23;20342;-74
2022/04/17 06:26:06;;;;;;;2.75;2.08;;;;;;;-144.47;100.00;61586.06;6181624;23;20334;-75
2022/04/17 06:28:32;;;;;;;1.80;1.70;;;;;;;-144.47;100.00;61586.06;6181598;23;20120;-74
2022/04/17 06:30:57;;;;;;;2.63;1.95;;;;;;;-144.47;100.00;61586.06;6182025;23;20329;-74
2022/04/17 06:33:23;;;;;;;2.30;2.10;;;;;;;-144.47;100.00;61586.06;6181707;23;20032;-75
2022/04/17 06:35:48;;;;;;;4.88;2.60;;;;;;;-144.47;100.00;61586.06;6181892;23;20009;-75
2022/04/17 06:38:15;;;;;;;2.88;1.98;;;;;;;-144.47;100.00;61586.06;6181238;23;20024;-74
2022/04/17 06:40:41;;;;;;;2.75;2.00;;;;;;;-144.47;100.00;61586.06;6181697;23;20037;-75
2022/04/17 06:43:08;;;;;;;4.57;2.30;;;;;;;-144.47;100.00;61586.06;6181559;23;20589;-74
2022/04/17 06:45:39;;;;;;;4.28;2.30;;;;;;;-144.47;100.00;61586.06;6182115;23;20324;-75
2022/04/17 06:48:19;;;;;;;3.28;2.20;;;;;;;-144.47;100.00;61586.06;6181775;23;20009;-75
2022/04/17 06:50:45;;;;;;;2.70;2.25;;;;;;;-144.47;100.00;61586.06;6182545;23;20433;-76
2022/04/17 06:53:11;;;;;;;2.13;2.03;;;;;;;-144.47;100.00;61586.06;6181233;23;20139;-75
2022/04/17 06:55:37;;;;;;;4.05;2.78;;;;;;;-144.47;100.00;61586.06;6181599;23;20041;-74
2022/04/17 06:58:03;;;;;;;3.28;2.47;;;;;;;-144.47;100.00;61586.06;6181805;23;20031;-74
2022/04/17 07:00:28;;;;;;;2.40;2.00;;;;;;;-144.47;100.00;61586.06;6181582;23;20020;-74
2022/04/17 07:02:54;;;;;;;2.17;2.00;;;;;;;-144.47;100.00;61586.06;6155331;23;20013;-75
2022/04/17 07:05:19;;;;;;;3.13;2.22;;;;;;;-144.47;100.00;61586.06;6181841;23;20009;-75
2022/04/17 07:07:45;;;;;;;4.30;2.00;;;;;;;-144.47;100.00;61586.06;6181394;23;20001;-75
2022/04/17 07:10:11;;;;;;;3.38;2.03;;;;;;;-144.47;100.00;61586.06;6181478;23;20350;-74
2022/04/17 07:12:37;;;;;;;2.72;1.98;;;;;;;-144.47;100.00;61586.06;6181346;23;20047;-74
2022/04/17 07:15:06;;;;;;;4.40;2.28;;;;;;;-144.47;100.00;61586.06;6181356;23;20008;-74
2022/04/17 07:17:39;;;;;;;2.83;2.20;;;;;;;-144.47;100.00;61586.06;6181872;23;20024;-74
2022/04/17 07:20:07;;;;;;;4.03;2.20;;;;;;;-144.47;100.00;61586.06;6181545;23;20009;-74
2022/04/17 07:22:37;;;;;;;3.63;2.20;;;;;;;-144.47;100.00;61586.06;6181526;23;20009;-75
2022/04/17 07:25:04;;;;;;;2.58;2.00;;;;;;;-144.47;100.00;61586.06;6181899;23;20008;-74
2022/04/17 07:27:39;;;;;;;2.97;2.33;;;;;;;-144.47;100.00;61586.06;6154497;23;20017;-75
2022/04/17 07:30:11;;;;;;;3.60;2.30;;;;;;;-144.47;100.00;61586.06;6181349;23;20013;-75
2022/04/17 07:32:38;;;;;;;2.58;2.38;;;;;;;-144.47;100.00;61586.06;6181464;23;20041;-74
2022/04/17 07:35:04;;;;;;;3.28;1.73;;;;;;;-144.47;100.00;61586.06;6181359;23;20013;-74
2022/04/17 07:37:32;;;;;;;2.00;1.65;;;;;;;-144.47;100.00;61586.06;6181296;23;20412;-74
2022/04/17 07:39:57;;;;;;;4.18;2.25;;;;;;;-144.47;100.00;61586.06;6181388;23;20036;-76
2022/04/17 07:42:23;;;;;;;3.05;2.00;;;;;;;-144.47;100.00;61586.06;6180840;23;20017;-74
2022/04/17 07:44:48;;;;;;;2.58;1.92;;;;;;;-144.47;100.00;61586.06;6181274;23;20091;-75
2022/04/17 07:47:15;;;;;;;3.33;2.30;;;;;;;-144.47;100.00;61586.06;6180871;23;20001;-74
2022/04/17 07:49:41;;;;;;;3.17;2.10;;;;;;;-144.47;100.00;61586.06;6181274;23;20019;-74
2022/04/17 07:52:07;;;;;;;4.38;2.20;;;;;;;-144.47;100.00;61586.06;6181059;23;20087;-75
2022/04/17 07:54:32;;;;;;;3.35;2.08;;;;;;;-144.47;100.00;61586.06;6180893;23;20021;-74
2022/04/17 07:56:58;;;;;;;4.07;1.83;;;;;;;-144.47;100.00;61586.06;6181826;23;20017;-74
2022/04/17 07:59:25;;;;;;;5.50;2.28;;;;;;;-144.47;100.00;61586.06;6180287;23;20016;-75
2022/04/17 08:01:50;;;;;;;4.07;1.88;;;;;;;-144.47;100.00;61586.06;6181633;23;20040;-75
2022/04/17 08:04:16;;;;;;;2.60;2.17;;;;;;;-144.47;100.00;61586.06;6180988;23;20426;-75
2022/04/17 08:06:42;;;;;;;2.22;2.00;;;;;;;-144.47;100.00;61586.06;6181507;23;20016;-75
2022/04/17 08:09:07;;;;;;;2.63;2.00;;;;;;;-144.47;100.00;61586.06;6181108;23;20013;-75
2022/04/17 08:11:34;;;;;;;3.20;2.50;;;;;;;-144.47;100.00;61586.06;6181171;23;20016;-74
2022/04/17 08:13:59;;;;;;;3.83;2.15;;;;;;;-144.47;100.00;61586.06;6181334;23;20379;-74
2022/04/17 08:16:25;;;;;;;5.78;2.13;;;;;;;-144.47;100.00;61586.06;6154103;23;20029;-75
2022/04/17 08:18:50;;;;;;;2.30;2.10;;;;;;;-144.47;100.00;61586.06;6181104;23;20097;-74
2022/04/17 08:21:16;;;;;;;8.63;2.30;;;;;;;-144.47;100.00;61586.06;6180651;23;20021;-74
2022/04/17 08:23:42;;;;;;;2.40;2.20;;;;;;;-144.47;100.00;61586.06;6180859;23;20284;-74
2022/04/17 08:26:07;;;;;;;3.65;2.65;;;;;;;-144.47;100.00;61586.06;6180855;23;20115;-73
2022/04/17 08:28:33;;;;;;;3.58;2.00;;;;;;;-144.47;100.00;61586.06;6180965;23;20013;-73
2022/04/17 08:30:59;;;;;;;2.45;1.70;;;;;;;-144.47;100.00;61586.06;6180548;23;20015;-74
2022/04/17 08:33:26;;;;;;;6.28;2.05;;;;;;;-144.47;100.00;61586.06;6180794;23;20036;-73
2022/04/17 08:35:55;;;;;;;1.95;1.75;;;;;;;-144.47;100.00;61586.06;6181076;23;20040;-75
2022/04/17 08:38:22;;;;;;;3.47;1.80;;;;;;;-144.47;100.00;61586.06;6180320;23;20150;-75
2022/04/17 08:40:49;;;;;;;4.45;2.10;;;;;;;-144.47;100.00;61586.06;6181302;23;20001;-76
2022/04/17 08:43:18;;;;;;;2.95;2.47;;;;;;;-144.47;100.00;61586.06;6180874;23;20442;-74
2022/04/17 08:45:43;;;;;;;5.05;2.45;;;;;;;-144.47;100.00;61586.06;6181715;23;20414;-74
2022/04/17 08:48:08;;;;;;;4.50;2.45;;;;;;;-144.47;100.00;61586.06;6182150;23;20012;-76
2022/04/17 08:50:34;;;;;;;4.57;2.03;;;;;;;-144.47;100.00;61586.06;6182795;23;20017;-75
2022/04/17 08:53:01;;;;;;;2.30;1.80;;;;;;;-144.47;100.00;61586.06;6182629;23;20021;-75
2022/04/17 08:55:26;;;;;;;2.67;1.85;;;;;;;-144.47;100.00;61586.06;6188982;23;20756;-75
2022/04/17 08:57:52;;;;;;;2.20;1.95;;;;;;;-144.47;100.00;61586.06;6190450;23;20175;-75
2022/04/17 09:00:18;;;;;;;3.45;1.75;;;;;;;-144.47;100.00;61586.06;6182988;23;20183;-75
2022/04/17 09:02:45;;;;;;;3.65;1.83;;;;;;;-144.47;100.00;61586.06;6182132;23;20064;-75
2022/04/17 09:05:12;;;;;;;2.67;1.75;;;;;;;-144.47;100.00;61586.06;6181852;23;20013;-75
2022/04/17 09:07:46;;;;;;;5.03;2.00;;;;;;;-144.47;100.00;61586.06;6182021;23;20344;-73
2022/04/17 09:10:29;;;;;;;3.05;2.10;;;;;;;-144.47;100.00;61586.06;6182128;23;20040;-76
2022/04/17 09:13:00;;;;;;;2.88;1.50;;;;;;;-144.47;100.00;61586.06;6182370;23;20021;-73
2022/04/17 09:15:28;;;;;;;3.40;2.08;;;;;;;-144.47;100.00;61586.06;6182155;23;20099;-73
2022/04/17 09:17:54;;;;;;;1.67;1.58;;;;;;;-144.47;100.00;61586.06;6181555;23;20386;-75
2022/04/17 09:20:24;;;;;;;4.78;1.58;;;;;;;-144.47;100.00;61586.06;6181779;23;20007;-75
2022/04/17 09:22:55;;;;;;;3.78;1.83;;;;;;;-144.47;100.00;61586.06;6181845;23;20029;-74
2022/04/17 09:25:25;;;;;;;3.25;1.60;;;;;;;-144.47;100.00;61586.06;6181617;23;20376;-74
2022/04/17 09:28:04;;;;;;;;;;;;;;;-144.47;100.00;61586.06;6182614;23;20020;-75
2022/04/17 09:30:33;;;;;;;4.22;1.63;;;;;;;-144.47;100.00;61586.06;6182552;23;20043;-75
2022/04/17 09:33:06;;;;;;;1.83;1.35;;;;;;;-144.47;100.00;61586.06;6181534;23;20032;-74
2022/04/17 09:35:32;;;;;;;2.33;1.35;;;;;;;-144.47;100.00;61586.06;6181682;23;20024;-75
2022/04/17 09:37:59;;;;;;;4.00;1.45;;;;;;;-144.47;100.00;61586.06;6180861;23;20032;-74
2022/04/17 09:40:28;;;;;;;2.08;1.63;;;;;;;-144.47;100.00;61586.06;6181011;23;20013;-77
2022/04/17 09:43:31;;;;;;;1.48;1.38;;;;;;;-144.47;100.00;61586.06;6155328;23;20028;-74
2022/04/17 09:46:09;;;;;;;1.35;1.25;;;;;;;-144.47;100.00;61586.06;6134455;23;20024;-74
2022/04/17 09:48:44;;;;;;;4.45;1.70;;;;;;;-144.47;100.00;61586.06;6180769;23;20013;-74
2022/04/17 09:51:26;;;;;;;1.88;1.15;;;;;;;-144.47;100.00;61586.06;6180650;23;20036;-74
2022/04/17 09:54:14;;;;;;;1.92;1.25;;;;;;;-144.47;100.00;61586.06;6181083;23;20020;-73
2022/04/17 09:56:43;;;;;;;2.47;1.30;;;;;;;-144.47;100.00;61586.06;6180964;23;20337;-74
2022/04/17 09:59:20;;;;;;;3.53;1.23;;;;;;;-144.47;100.00;61586.06;6180996;23;20009;-74
2022/04/17 10:01:47;;;;;;;2.88;1.40;;;;;;;-144.47;100.00;61586.06;6181397;23;20009;-75
2022/04/17 10:04:16;;;;;;;2.97;1.55;;;;;;;-144.47;100.00;61586.06;6180361;23;20016;-74
2022/04/17 10:06:43;;;;;;;1.95;1.40;;;;;;;-144.47;100.00;61586.06;6181162;23;20088;-74
2022/04/17 10:09:11;;;;;;;2.50;1.10;;;;;;;-144.47;100.00;61586.06;6180628;23;20072;-75
2022/04/17 10:11:37;;;;;;;2.28;2.03;;;;;;;-144.47;100.00;61586.06;6181120;23;20012;-75
2022/04/17 10:14:04;;;;;;;1.60;1.35;;;;;;;-144.47;100.00;61586.06;6181523;23;20036;-74
2022/04/17 10:16:32;;;;;;;2.00;1.33;;;;;;;-144.47;100.00;61586.06;6154752;23;20067;-74
2022/04/17 10:19:00;;;;;;;2.45;1.60;;;;;;;-144.47;100.00;61586.06;6181248;23;20091;-75
2022/04/17 10:21:28;;;;;;;2.08;1.60;;;;;;;-144.47;100.00;61586.06;6181146;23;20083;-75
2022/04/17 10:24:00;;;;;;;3.35;1.50;;;;;;;-144.47;100.00;61586.06;6180649;23;20078;-75
2022/04/17 10:26:28;;;;;;;3.63;1.83;;;;;;;-144.47;100.00;61586.06;6180886;23;20021;-75
2022/04/17 10:28:56;;;;;;;4.05;1.70;;;;;;;-144.47;100.00;61586.06;6181292;23;20370;-75
2022/04/17 10:31:22;;;;;;;3.10;1.55;;;;;;;-144.47;100.00;61586.06;6181014;23;20268;-75
2022/04/17 10:33:58;;;;;;;2.00;1.30;;;;;;;-144.47;100.00;61586.06;6181145;23;20005;-75
2022/04/17 10:36:44;;;;;;;2.88;1.45;;;;;;;-144.47;100.00;61586.06;6153807;23;20024;-75
2022/04/17 10:39:27;;;;;;;4.05;1.80;;;;;;;-144.47;100.00;61586.06;6180020;23;20013;-75
2022/04/17 10:41:52;;;;;;;2.15;1.45;;;;;;;-144.47;100.00;61586.06;6180884;23;20084;-75
2022/04/17 10:44:18;;;;;;;4.18;2.03;;;;;;;-144.47;100.00;61586.06;6180643;23;20041;-76
2022/04/17 10:46:51;;;;;;;1.77;1.52;;;;;;;-144.47;100.00;61586.06;6180983;23;20039;-74
2022/04/17 10:49:18;;;;;;;1.38;1.25;;;;;;;-144.47;100.00;61586.06;6180295;23;20400;-75
2022/04/17 10:51:52;;;;;;;3.45;1.55;;;;;;;-144.47;100.00;61586.06;6180583;23;20013;-76
2022/04/17 10:54:18;;;;;;;4.20;1.80;;;;;;;-144.47;100.00;61586.06;6154283;23;20024;-76
2022/04/17 10:56:55;;;;;;;1.70;1.48;;;;;;;-144.47;100.00;61586.06;6180817;23;20016;-75
2022/04/17 10:59:25;;;;;;;2.00;1.80;;;;;;;-144.47;100.00;61586.06;6180517;23;20017;-75
2022/04/17 11:02:10;;;;;;;2.85;1.80;;;;;;;-144.47;100.00;61586.06;6180927;23;20040;-75
2022/04/17 11:04:54;;;;;;;2.70;1.65;;;;;;;-144.47;100.00;61586.06;6154518;23;20024;-75
2022/04/17 11:07:30;;;;;;;2.83;2.00;;;;;;;-144.47;100.00;61586.06;6154506;23;20031;-75
2022/04/17 11:10:13;;;;;;;2.83;1.88;;;;;;;-144.47;100.00;61586.06;6180427;23;20025;-74
2022/04/17 11:12:47;;;;;;;5.07;2.05;;;;;;;-144.47;100.00;61586.06;6180637;23;20040;-74
2022/04/17 11:15:12;;;;;;;3.90;1.75;;;;;;;-144.47;100.00;61586.06;6180463;23;20346;-74
2022/04/17 11:17:39;;;;;;;1.67;1.50;;;;;;;-144.47;100.00;61586.06;6180835;23;20005;-74
2022/04/17 11:20:07;;;;;;;1.60;1.50;;;;;;;-144.47;100.00;61586.06;6181119;23;20016;-74
2022/04/17 11:22:37;;;;;;;3.50;2.33;;;;;;;-144.47;100.00;61586.06;6181148;23;20044;-75